sensor_id;sensor_type;location;lat;lon;timestamp;pressure;altitude;pressure_sealevel;temperature
73673;BMP280;61972;19.480;-99.240;2023-03-12T00:00:54;77487.25;;;31.05
73673;BMP280;61972;19.480;-99.240;2023-03-12T00:03:20;77519.16;;;31.10
73673;BMP280;61972;19.480;-99.240;2023-03-12T00:05:55;77554.69;;;31.13
73673;BMP280;61972;19.480;-99.240;2023-03-12T00:08:30;77549.94;;;31.14
73673;BMP280;61972;19.480;-99.240;2023-03-12T00:10:56;77547.75;;;31.12
73673;BMP280;61972;19.480;-99.240;2023-03-12T00:13:22;77563.72;;;31.15
73673;BMP280;61972;19.480;-99.240;2023-03-12T00:15:48;77575.81;;;31.13
73673;BMP280;61972;19.480;-99.240;2023-03-12T00:18:14;77564.56;;;31.10
73673;BMP280;61972;19.480;-99.240;2023-03-12T00:20:40;77584.72;;;31.12
73673;BMP280;61972;19.480;-99.240;2023-03-12T00:23:06;77589.44;;;31.11
73673;BMP280;61972;19.480;-99.240;2023-03-12T00:25:33;77587.47;;;31.15
73673;BMP280;61972;19.480;-99.240;2023-03-12T00:27:59;77609.78;;;31.18
73673;BMP280;61972;19.480;-99.240;2023-03-12T00:30:25;77600.88;;;31.20
73673;BMP280;61972;19.480;-99.240;2023-03-12T00:32:53;77604.63;;;31.21
73673;BMP280;61972;19.480;-99.240;2023-03-12T00:35:19;77598.25;;;31.20
73673;BMP280;61972;19.480;-99.240;2023-03-12T00:37:45;77609.91;;;31.21
73673;BMP280;61972;19.480;-99.240;2023-03-12T00:40:12;77592.09;;;31.24
73673;BMP280;61972;19.480;-99.240;2023-03-12T00:42:38;77602.75;;;31.26
73673;BMP280;61972;19.480;-99.240;2023-03-12T00:45:04;77608.19;;;31.29
73673;BMP280;61972;19.480;-99.240;2023-03-12T00:47:30;77612.03;;;31.32
73673;BMP280;61972;19.480;-99.240;2023-03-12T00:49:56;77627.00;;;31.37
73673;BMP280;61972;19.480;-99.240;2023-03-12T00:52:23;77632.50;;;31.42
73673;BMP280;61972;19.480;-99.240;2023-03-12T00:54:49;77635.25;;;31.44
73673;BMP280;61972;19.480;-99.240;2023-03-12T00:57:15;77630.19;;;31.49
73673;BMP280;61972;19.480;-99.240;2023-03-12T00:59:41;77623.59;;;31.56
73673;BMP280;61972;19.480;-99.240;2023-03-12T01:02:07;77626.59;;;31.63
73673;BMP280;61972;19.480;-99.240;2023-03-12T01:04:33;77622.16;;;31.71
73673;BMP280;61972;19.480;-99.240;2023-03-12T01:07:00;77626.25;;;31.80
73673;BMP280;61972;19.480;-99.240;2023-03-12T01:09:26;77628.00;;;31.84
73673;BMP280;61972;19.480;-99.240;2023-03-12T01:11:52;77627.13;;;31.88
73673;BMP280;61972;19.480;-99.240;2023-03-12T01:14:18;77620.97;;;31.93
73673;BMP280;61972;19.480;-99.240;2023-03-12T01:16:44;77616.44;;;31.98
73673;BMP280;61972;19.480;-99.240;2023-03-12T01:19:10;77622.28;;;31.99
73673;BMP280;61972;19.480;-99.240;2023-03-12T01:21:36;77642.31;;;31.98
73673;BMP280;61972;19.480;-99.240;2023-03-12T01:24:02;77635.28;;;31.94
73673;BMP280;61972;19.480;-99.240;2023-03-12T01:26:29;77638.91;;;31.92
73673;BMP280;61972;19.480;-99.240;2023-03-12T01:28:55;77636.16;;;31.89
73673;BMP280;61972;19.480;-99.240;2023-03-12T01:31:21;77640.13;;;31.83
73673;BMP280;61972;19.480;-99.240;2023-03-12T01:33:49;77632.41;;;31.76
73673;BMP280;61972;19.480;-99.240;2023-03-12T01:36:23;77629.44;;;31.68
73673;BMP280;61972;19.480;-99.240;2023-03-12T01:38:51;77627.13;;;31.64
73673;BMP280;61972;19.480;-99.240;2023-03-12T01:41:17;77619.53;;;31.59
73673;BMP280;61972;19.480;-99.240;2023-03-12T01:43:44;77619.72;;;31.52
73673;BMP280;61972;19.480;-99.240;2023-03-12T01:51:47;77612.56;;;31.33
73673;BMP280;61972;19.480;-99.240;2023-03-12T01:56:47;77616.84;;;31.22
73673;BMP280;61972;19.480;-99.240;2023-03-12T01:59:33;77628.28;;;31.18
73673;BMP280;61972;19.480;-99.240;2023-03-12T02:02:01;77628.16;;;31.16
73673;BMP280;61972;19.480;-99.240;2023-03-12T02:04:28;77635.00;;;31.15
73673;BMP280;61972;19.480;-99.240;2023-03-12T02:07:06;77630.03;;;31.10
73673;BMP280;61972;19.480;-99.240;2023-03-12T02:09:35;77647.72;;;31.04
73673;BMP280;61972;19.480;-99.240;2023-03-12T02:12:01;77647.47;;;30.99
73673;BMP280;61972;19.480;-99.240;2023-03-12T02:14:28;77642.09;;;30.97
73673;BMP280;61972;19.480;-99.240;2023-03-12T02:16:54;77655.16;;;30.94
73673;BMP280;61972;19.480;-99.240;2023-03-12T02:22:18;77693.41;;;30.88
73673;BMP280;61972;19.480;-99.240;2023-03-12T02:24:55;77694.03;;;30.79
73673;BMP280;61972;19.480;-99.240;2023-03-12T02:27:22;77703.75;;;30.73
73673;BMP280;61972;19.480;-99.240;2023-03-12T02:29:48;77707.81;;;30.69
73673;BMP280;61972;19.480;-99.240;2023-03-12T02:32:20;77707.28;;;30.69
73673;BMP280;61972;19.480;-99.240;2023-03-12T02:34:47;77713.53;;;30.67
73673;BMP280;61972;19.480;-99.240;2023-03-12T02:37:16;77704.38;;;30.64
73673;BMP280;61972;19.480;-99.240;2023-03-12T02:39:44;77714.81;;;30.61
73673;BMP280;61972;19.480;-99.240;2023-03-12T02:42:11;77713.16;;;30.60
73673;BMP280;61972;19.480;-99.240;2023-03-12T02:44:38;77717.34;;;30.59
73673;BMP280;61972;19.480;-99.240;2023-03-12T02:47:04;77724.56;;;30.55
73673;BMP280;61972;19.480;-99.240;2023-03-12T02:49:32;77721.94;;;30.55
73673;BMP280;61972;19.480;-99.240;2023-03-12T02:51:59;77718.72;;;30.55
73673;BMP280;61972;19.480;-99.240;2023-03-12T02:54:26;77728.63;;;30.52
73673;BMP280;61972;19.480;-99.240;2023-03-12T02:56:55;77725.44;;;30.51
73673;BMP280;61972;19.480;-99.240;2023-03-12T02:59:22;77721.00;;;30.47
73673;BMP280;61972;19.480;-99.240;2023-03-12T03:01:55;77722.81;;;30.42
73673;BMP280;61972;19.480;-99.240;2023-03-12T03:04:22;77719.97;;;30.37
73673;BMP280;61972;19.480;-99.240;2023-03-12T03:06:49;77716.63;;;30.33
73673;BMP280;61972;19.480;-99.240;2023-03-12T03:09:15;77720.78;;;30.32
73673;BMP280;61972;19.480;-99.240;2023-03-12T03:11:41;77732.88;;;30.31
73673;BMP280;61972;19.480;-99.240;2023-03-12T03:14:08;77739.13;;;30.30
73673;BMP280;61972;19.480;-99.240;2023-03-12T03:16:34;77731.22;;;30.30
73673;BMP280;61972;19.480;-99.240;2023-03-12T03:19:01;77726.50;;;30.30
73673;BMP280;61972;19.480;-99.240;2023-03-12T03:21:27;77717.47;;;30.29
73673;BMP280;61972;19.480;-99.240;2023-03-12T03:23:54;77714.28;;;30.29
73673;BMP280;61972;19.480;-99.240;2023-03-12T03:26:22;77706.81;;;30.27
73673;BMP280;61972;19.480;-99.240;2023-03-12T03:28:49;77698.34;;;30.26
73673;BMP280;61972;19.480;-99.240;2023-03-12T03:31:16;77697.78;;;30.26
73673;BMP280;61972;19.480;-99.240;2023-03-12T03:33:42;77705.16;;;30.25
73673;BMP280;61972;19.480;-99.240;2023-03-12T03:36:10;77718.34;;;30.25
73673;BMP280;61972;19.480;-99.240;2023-03-12T03:38:39;77718.34;;;30.25
73673;BMP280;61972;19.480;-99.240;2023-03-12T03:41:06;77721.41;;;30.23
73673;BMP280;61972;19.480;-99.240;2023-03-12T03:43:32;77720.31;;;30.22
73673;BMP280;61972;19.480;-99.240;2023-03-12T03:45:59;77718.06;;;30.20
73673;BMP280;61972;19.480;-99.240;2023-03-12T03:48:29;77706.44;;;30.19
73673;BMP280;61972;19.480;-99.240;2023-03-12T03:51:02;77698.94;;;30.17
73673;BMP280;61972;19.480;-99.240;2023-03-12T03:53:29;77706.84;;;30.17
73673;BMP280;61972;19.480;-99.240;2023-03-12T03:55:55;77703.69;;;30.16
73673;BMP280;61972;19.480;-99.240;2023-03-12T03:58:22;77702.00;;;30.15
73673;BMP280;61972;19.480;-99.240;2023-03-12T04:00:48;77696.72;;;30.15
73673;BMP280;61972;19.480;-99.240;2023-03-12T04:03:16;77697.84;;;30.16
73673;BMP280;61972;19.480;-99.240;2023-03-12T04:05:42;77686.19;;;30.15
73673;BMP280;61972;19.480;-99.240;2023-03-12T04:08:12;77683.56;;;30.15
73673;BMP280;61972;19.480;-99.240;2023-03-12T04:10:38;77674.53;;;30.14
73673;BMP280;61972;19.480;-99.240;2023-03-12T04:13:04;77667.63;;;30.12
73673;BMP280;61972;19.480;-99.240;2023-03-12T04:15:30;77680.69;;;30.10
73673;BMP280;61972;19.480;-99.240;2023-03-12T04:17:56;77670.13;;;30.10
73673;BMP280;61972;19.480;-99.240;2023-03-12T04:20:22;77672.22;;;30.09
73673;BMP280;61972;19.480;-99.240;2023-03-12T04:22:49;77665.28;;;30.08
73673;BMP280;61972;19.480;-99.240;2023-03-12T04:25:15;77667.94;;;30.08
73673;BMP280;61972;19.480;-99.240;2023-03-12T04:27:41;77664.59;;;30.05
73673;BMP280;61972;19.480;-99.240;2023-03-12T04:30:08;77680.44;;;30.05
73673;BMP280;61972;19.480;-99.240;2023-03-12T04:32:34;77676.69;;;30.04
73673;BMP280;61972;19.480;-99.240;2023-03-12T04:35:00;77672.38;;;30.02
73673;BMP280;61972;19.480;-99.240;2023-03-12T04:37:26;77673.91;;;30.01
73673;BMP280;61972;19.480;-99.240;2023-03-12T04:39:52;77670.72;;;30.01
73673;BMP280;61972;19.480;-99.240;2023-03-12T04:42:18;77668.09;;;30.01
73673;BMP280;61972;19.480;-99.240;2023-03-12T04:44:44;77668.53;;;29.99
73673;BMP280;61972;19.480;-99.240;2023-03-12T04:47:10;77669.47;;;29.97
73673;BMP280;61972;19.480;-99.240;2023-03-12T04:49:39;77676.84;;;29.96
73673;BMP280;61972;19.480;-99.240;2023-03-12T04:52:06;77667.84;;;29.95
73673;BMP280;61972;19.480;-99.240;2023-03-12T04:54:32;77670.47;;;29.95
73673;BMP280;61972;19.480;-99.240;2023-03-12T04:56:58;77669.38;;;29.94
73673;BMP280;61972;19.480;-99.240;2023-03-12T04:59:24;77682.41;;;29.92
73673;BMP280;61972;19.480;-99.240;2023-03-12T05:01:51;77672.84;;;29.90
73673;BMP280;61972;19.480;-99.240;2023-03-12T05:04:17;77682.28;;;29.89
73673;BMP280;61972;19.480;-99.240;2023-03-12T05:06:45;77671.63;;;29.87
73673;BMP280;61972;19.480;-99.240;2023-03-12T05:09:11;77674.66;;;29.85
73673;BMP280;61972;19.480;-99.240;2023-03-12T05:11:37;77670.38;;;29.83
73673;BMP280;61972;19.480;-99.240;2023-03-12T05:14:03;77678.16;;;29.81
73673;BMP280;61972;19.480;-99.240;2023-03-12T05:16:29;77674.97;;;29.80
73673;BMP280;61972;19.480;-99.240;2023-03-12T05:18:55;77681.75;;;29.79
73673;BMP280;61972;19.480;-99.240;2023-03-12T05:21:21;77684.81;;;29.77
73673;BMP280;61972;19.480;-99.240;2023-03-12T05:23:47;77682.19;;;29.77
73673;BMP280;61972;19.480;-99.240;2023-03-12T05:26:29;77677.34;;;29.75
73673;BMP280;61972;19.480;-99.240;2023-03-12T05:28:59;77683.03;;;29.73
73673;BMP280;61972;19.480;-99.240;2023-03-12T05:31:26;77676.69;;;29.72
73673;BMP280;61972;19.480;-99.240;2023-03-12T05:33:53;77686.53;;;29.69
73673;BMP280;61972;19.480;-99.240;2023-03-12T05:36:19;77682.78;;;29.68
73673;BMP280;61972;19.480;-99.240;2023-03-12T05:38:46;77685.84;;;29.66
73673;BMP280;61972;19.480;-99.240;2023-03-12T05:41:23;77675.19;;;29.63
73673;BMP280;61972;19.480;-99.240;2023-03-12T05:43:52;77676.56;;;29.59
73673;BMP280;61972;19.480;-99.240;2023-03-12T05:46:19;77676.44;;;29.57
73673;BMP280;61972;19.480;-99.240;2023-03-12T05:48:45;77678.94;;;29.54
73673;BMP280;61972;19.480;-99.240;2023-03-12T05:51:11;77679.34;;;29.52
73673;BMP280;61972;19.480;-99.240;2023-03-12T05:53:37;77674.50;;;29.50
73673;BMP280;61972;19.480;-99.240;2023-03-12T05:56:05;77671.22;;;29.47
73673;BMP280;61972;19.480;-99.240;2023-03-12T05:58:33;77678.00;;;29.46
73673;BMP280;61972;19.480;-99.240;2023-03-12T06:01:00;77685.31;;;29.46
73673;BMP280;61972;19.480;-99.240;2023-03-12T06:03:27;77683.69;;;29.44
73673;BMP280;61972;19.480;-99.240;2023-03-12T06:05:53;77683.69;;;29.44
73673;BMP280;61972;19.480;-99.240;2023-03-12T06:08:23;77683.09;;;29.44
73673;BMP280;61972;19.480;-99.240;2023-03-12T06:10:51;77687.25;;;29.43
73673;BMP280;61972;19.480;-99.240;2023-03-12T06:13:20;77688.81;;;29.42
73673;BMP280;61972;19.480;-99.240;2023-03-12T06:15:48;77691.44;;;29.42
73673;BMP280;61972;19.480;-99.240;2023-03-12T06:18:17;77689.88;;;29.43
73673;BMP280;61972;19.480;-99.240;2023-03-12T06:20:43;77683.00;;;29.41
73673;BMP280;61972;19.480;-99.240;2023-03-12T06:23:09;77686.03;;;29.39
73673;BMP280;61972;19.480;-99.240;2023-03-12T06:25:35;77681.19;;;29.37
73673;BMP280;61972;19.480;-99.240;2023-03-12T06:28:02;77685.34;;;29.36
73673;BMP280;61972;19.480;-99.240;2023-03-12T06:30:28;77685.34;;;29.36
73673;BMP280;61972;19.480;-99.240;2023-03-12T06:32:54;77677.88;;;29.34
73673;BMP280;61972;19.480;-99.240;2023-03-12T06:35:20;77667.34;;;29.34
73673;BMP280;61972;19.480;-99.240;2023-03-12T06:37:46;77663.63;;;29.33
73673;BMP280;61972;19.480;-99.240;2023-03-12T06:40:12;77670.94;;;29.32
73673;BMP280;61972;19.480;-99.240;2023-03-12T06:42:38;77670.41;;;29.32
73673;BMP280;61972;19.480;-99.240;2023-03-12T06:45:05;77669.28;;;29.31
73673;BMP280;61972;19.480;-99.240;2023-03-12T06:47:31;77656.66;;;29.31
73673;BMP280;61972;19.480;-99.240;2023-03-12T06:49:57;77665.56;;;29.30
73673;BMP280;61972;19.480;-99.240;2023-03-12T06:52:24;77668.72;;;29.30
73673;BMP280;61972;19.480;-99.240;2023-03-12T06:54:50;77667.09;;;29.29
73673;BMP280;61972;19.480;-99.240;2023-03-12T06:57:16;77666.50;;;29.28
73673;BMP280;61972;19.480;-99.240;2023-03-12T06:59:42;77664.88;;;29.27
73673;BMP280;61972;19.480;-99.240;2023-03-12T07:02:11;77662.63;;;29.25
73673;BMP280;61972;19.480;-99.240;2023-03-12T07:04:37;77664.19;;;29.24
73673;BMP280;61972;19.480;-99.240;2023-03-12T07:07:04;77654.06;;;29.21
73673;BMP280;61972;19.480;-99.240;2023-03-12T07:09:30;77650.88;;;29.21
73673;BMP280;61972;19.480;-99.240;2023-03-12T07:11:56;77648.78;;;29.21
73673;BMP280;61972;19.480;-99.240;2023-03-12T07:14:22;77648.78;;;29.21
73673;BMP280;61972;19.480;-99.240;2023-03-12T07:16:48;77646.59;;;29.19
73673;BMP280;61972;19.480;-99.240;2023-03-12T07:19:15;77637.59;;;29.18
73673;BMP280;61972;19.480;-99.240;2023-03-12T07:21:41;77633.44;;;29.19
73673;BMP280;61972;19.480;-99.240;2023-03-12T07:24:07;77629.69;;;29.18
73673;BMP280;61972;19.480;-99.240;2023-03-12T07:26:34;77623.88;;;29.18
73673;BMP280;61972;19.480;-99.240;2023-03-12T07:29:02;77621.66;;;29.16
73673;BMP280;61972;19.480;-99.240;2023-03-12T07:31:28;77629.00;;;29.15
73673;BMP280;61972;19.480;-99.240;2023-03-12T07:33:55;77624.84;;;29.16
73673;BMP280;61972;19.480;-99.240;2023-03-12T07:36:21;77619.72;;;29.19
73673;BMP280;61972;19.480;-99.240;2023-03-12T07:38:47;77620.97;;;29.23
73673;BMP280;61972;19.480;-99.240;2023-03-12T07:41:13;77622.75;;;29.27
73673;BMP280;61972;19.480;-99.240;2023-03-12T07:43:39;77615.97;;;29.28
73673;BMP280;61972;19.480;-99.240;2023-03-12T07:46:06;77610.28;;;29.30
73673;BMP280;61972;19.480;-99.240;2023-03-12T07:48:32;77611.94;;;29.31
73673;BMP280;61972;19.480;-99.240;2023-03-12T07:50:58;77604.19;;;29.34
73673;BMP280;61972;19.480;-99.240;2023-03-12T07:53:24;77605.84;;;29.35
73673;BMP280;61972;19.480;-99.240;2023-03-12T07:55:50;77601.13;;;29.36
73673;BMP280;61972;19.480;-99.240;2023-03-12T07:58:16;77603.31;;;29.38
73673;BMP280;61972;19.480;-99.240;2023-03-12T08:00:43;77601.38;;;29.41
73673;BMP280;61972;19.480;-99.240;2023-03-12T08:03:10;77603.00;;;29.43
73673;BMP280;61972;19.480;-99.240;2023-03-12T08:05:36;77598.88;;;29.44
73673;BMP280;61972;19.480;-99.240;2023-03-12T08:08:02;77594.28;;;29.47
73673;BMP280;61972;19.480;-99.240;2023-03-12T08:10:28;77590.66;;;29.48
73673;BMP280;61972;19.480;-99.240;2023-03-12T08:12:54;77588.72;;;29.51
73673;BMP280;61972;19.480;-99.240;2023-03-12T08:15:21;77593.03;;;29.53
73673;BMP280;61972;19.480;-99.240;2023-03-12T08:17:47;77594.13;;;29.54
73673;BMP280;61972;19.480;-99.240;2023-03-12T08:20:13;77587.75;;;29.53
73673;BMP280;61972;19.480;-99.240;2023-03-12T08:22:39;77582.50;;;29.53
73673;BMP280;61972;19.480;-99.240;2023-03-12T08:25:06;77577.78;;;29.53
73673;BMP280;61972;19.480;-99.240;2023-03-12T08:27:33;77573.06;;;29.54
73673;BMP280;61972;19.480;-99.240;2023-03-12T08:29:59;77576.22;;;29.54
73673;BMP280;61972;19.480;-99.240;2023-03-12T08:32:25;77572.50;;;29.53
73673;BMP280;61972;19.480;-99.240;2023-03-12T08:34:51;77575.72;;;29.54
73673;BMP280;61972;19.480;-99.240;2023-03-12T08:37:18;77572.50;;;29.53
73673;BMP280;61972;19.480;-99.240;2023-03-12T08:39:44;77569.75;;;29.51
73673;BMP280;61972;19.480;-99.240;2023-03-12T08:42:10;77562.25;;;29.49
73673;BMP280;61972;19.480;-99.240;2023-03-12T08:44:39;77562.81;;;29.49
73673;BMP280;61972;19.480;-99.240;2023-03-12T08:47:07;77556.44;;;29.48
73673;BMP280;61972;19.480;-99.240;2023-03-12T08:49:33;77556.44;;;29.48
73673;BMP280;61972;19.480;-99.240;2023-03-12T08:52:00;77552.16;;;29.47
73673;BMP280;61972;19.480;-99.240;2023-03-12T08:54:26;77553.69;;;29.46
73673;BMP280;61972;19.480;-99.240;2023-03-12T08:56:52;77546.78;;;29.44
73673;BMP280;61972;19.480;-99.240;2023-03-12T08:59:19;77548.72;;;29.41
73673;BMP280;61972;19.480;-99.240;2023-03-12T09:01:45;77545.41;;;29.38
73673;BMP280;61972;19.480;-99.240;2023-03-12T09:04:11;77544.31;;;29.37
73673;BMP280;61972;19.480;-99.240;2023-03-12T09:06:38;77543.06;;;29.33
73673;BMP280;61972;19.480;-99.240;2023-03-12T09:09:04;77536.16;;;29.32
73673;BMP280;61972;19.480;-99.240;2023-03-12T09:11:32;77537.69;;;29.31
73673;BMP280;61972;19.480;-99.240;2023-03-12T09:13:59;77541.28;;;29.29
73673;BMP280;61972;19.480;-99.240;2023-03-12T09:16:26;77544.91;;;29.28
73673;BMP280;61972;19.480;-99.240;2023-03-12T09:18:52;77544.22;;;29.25
73673;BMP280;61972;19.480;-99.240;2023-03-12T09:21:19;77542.16;;;29.25
73673;BMP280;61972;19.480;-99.240;2023-03-12T09:23:46;77540.47;;;29.24
73673;BMP280;61972;19.480;-99.240;2023-03-12T09:26:12;77539.38;;;29.23
73673;BMP280;61972;19.480;-99.240;2023-03-12T09:28:39;77542.44;;;29.20
73673;BMP280;61972;19.480;-99.240;2023-03-12T09:31:05;77542.44;;;29.20
73673;BMP280;61972;19.480;-99.240;2023-03-12T09:33:32;77542.44;;;29.20
73673;BMP280;61972;19.480;-99.240;2023-03-12T09:36:01;77534.41;;;29.18
73673;BMP280;61972;19.480;-99.240;2023-03-12T09:38:28;77540.66;;;29.16
73673;BMP280;61972;19.480;-99.240;2023-03-12T09:40:57;77540.09;;;29.16
73673;BMP280;61972;19.480;-99.240;2023-03-12T09:43:28;77538.44;;;29.14
73673;BMP280;61972;19.480;-99.240;2023-03-12T09:45:57;77539.53;;;29.15
73673;BMP280;61972;19.480;-99.240;2023-03-12T09:48:33;77544.81;;;29.15
73673;BMP280;61972;19.480;-99.240;2023-03-12T09:51:04;77547.44;;;29.15
73673;BMP280;61972;19.480;-99.240;2023-03-12T09:53:32;77545.91;;;29.16
73673;BMP280;61972;19.480;-99.240;2023-03-12T09:56:03;77543.28;;;29.16
73673;BMP280;61972;19.480;-99.240;2023-03-12T09:58:35;77552.69;;;29.15
73673;BMP280;61972;19.480;-99.240;2023-03-12T10:04:17;77554.66;;;29.12
73673;BMP280;61972;19.480;-99.240;2023-03-12T10:06:54;77552.44;;;29.10
73673;BMP280;61972;19.480;-99.240;2023-03-12T10:09:29;77554.53;;;29.10
73673;BMP280;61972;19.480;-99.240;2023-03-12T10:14:37;77558.13;;;29.08
73673;BMP280;61972;19.480;-99.240;2023-03-12T10:25:29;77566.19;;;29.01
73673;BMP280;61972;19.480;-99.240;2023-03-12T10:28:09;77560.91;;;29.01
73673;BMP280;61972;19.480;-99.240;2023-03-12T10:30:40;77564.66;;;29.02
73673;BMP280;61972;19.480;-99.240;2023-03-12T10:33:11;77565.22;;;29.02
73673;BMP280;61972;19.480;-99.240;2023-03-12T10:35:39;77570.03;;;29.05
73673;BMP280;61972;19.480;-99.240;2023-03-12T10:38:12;77572.94;;;29.10
73673;BMP280;61972;19.480;-99.240;2023-03-12T10:40:39;77567.41;;;29.14
73673;BMP280;61972;19.480;-99.240;2023-03-12T10:43:06;77570.28;;;29.19
73673;BMP280;61972;19.480;-99.240;2023-03-12T10:48:06;77574.53;;;29.31
73673;BMP280;61972;19.480;-99.240;2023-03-12T10:50:38;77573.69;;;29.35
73673;BMP280;61972;19.480;-99.240;2023-03-12T10:53:27;77572.97;;;29.42
73673;BMP280;61972;19.480;-99.240;2023-03-12T10:58:24;77573.59;;;29.54
73673;BMP280;61972;19.480;-99.240;2023-03-12T11:00:59;77575.94;;;29.59
73673;BMP280;61972;19.480;-99.240;2023-03-12T11:03:26;77574.69;;;29.65
73673;BMP280;61972;19.480;-99.240;2023-03-12T11:05:55;77582.69;;;29.68
73673;BMP280;61972;19.480;-99.240;2023-03-12T11:08:25;77582.16;;;29.67
73673;BMP280;61972;19.480;-99.240;2023-03-12T11:10:53;77578.69;;;29.62
73673;BMP280;61972;19.480;-99.240;2023-03-12T11:13:33;77588.31;;;29.53
73673;BMP280;61972;19.480;-99.240;2023-03-12T11:19:03;77585.75;;;29.34
73673;BMP280;61972;19.480;-99.240;2023-03-12T11:21:31;77586.75;;;29.23
73673;BMP280;61972;19.480;-99.240;2023-03-12T11:26:31;77591.78;;;28.98
73673;BMP280;61972;19.480;-99.240;2023-03-12T11:29:03;77594.88;;;28.86
73673;BMP280;61972;19.480;-99.240;2023-03-12T11:34:36;77592.56;;;28.62
73673;BMP280;61972;19.480;-99.240;2023-03-12T11:54:38;77613.66;;;27.77
73673;BMP280;61972;19.480;-99.240;2023-03-12T12:00:13;77611.28;;;27.62
73673;BMP280;61972;19.480;-99.240;2023-03-12T12:08:39;77617.28;;;27.39
73673;BMP280;61972;19.480;-99.240;2023-03-12T12:25:22;77631.31;;;27.01
73673;BMP280;61972;19.480;-99.240;2023-03-12T12:36:14;77636.09;;;26.83
73673;BMP280;61972;19.480;-99.240;2023-03-12T12:38:50;77636.88;;;26.79
73673;BMP280;61972;19.480;-99.240;2023-03-12T12:41:20;77635.03;;;26.75
73673;BMP280;61972;19.480;-99.240;2023-03-12T12:43:52;77634.34;;;26.72
73673;BMP280;61972;19.480;-99.240;2023-03-12T12:47:09;77633.63;;;26.69
73673;BMP280;61972;19.480;-99.240;2023-03-12T12:49:21;77639.66;;;26.65
73673;BMP280;61972;19.480;-99.240;2023-03-12T12:51:52;77634.28;;;26.62
73673;BMP280;61972;19.480;-99.240;2023-03-12T12:57:12;77640.16;;;26.55
73673;BMP280;61972;19.480;-99.240;2023-03-12T12:59:48;77641.09;;;26.54
73673;BMP280;61972;19.480;-99.240;2023-03-12T13:02:24;77637.78;;;26.51
73673;BMP280;61972;19.480;-99.240;2023-03-12T13:04:57;77639.13;;;26.47
73673;BMP280;61972;19.480;-99.240;2023-03-12T13:09:55;77647.09;;;26.40
73673;BMP280;61972;19.480;-99.240;2023-03-12T13:14:55;77648.28;;;26.34
73673;BMP280;61972;19.480;-99.240;2023-03-12T13:17:33;77653.94;;;26.32
73673;BMP280;61972;19.480;-99.240;2023-03-12T13:20:11;77654.31;;;26.30
73673;BMP280;61972;19.480;-99.240;2023-03-12T13:23:10;77660.91;;;26.26
73673;BMP280;61972;19.480;-99.240;2023-03-12T13:33:53;77669.06;;;26.14
73673;BMP280;61972;19.480;-99.240;2023-03-12T13:36:23;77674.31;;;26.14
73673;BMP280;61972;19.480;-99.240;2023-03-12T13:38:56;77677.88;;;26.13
73673;BMP280;61972;19.480;-99.240;2023-03-12T13:41:48;77678.13;;;26.08
73673;BMP280;61972;19.480;-99.240;2023-03-12T13:52:29;77684.94;;;26.00
73673;BMP280;61972;19.480;-99.240;2023-03-12T13:57:44;77681.03;;;25.96
73673;BMP280;61972;19.480;-99.240;2023-03-12T14:00:25;77684.59;;;25.95
73673;BMP280;61972;19.480;-99.240;2023-03-12T14:03:05;77686.09;;;25.94
73673;BMP280;61972;19.480;-99.240;2023-03-12T14:05:46;77691.19;;;25.91
73673;BMP280;61972;19.480;-99.240;2023-03-12T14:16:46;77680.38;;;25.86
73673;BMP280;61972;19.480;-99.240;2023-03-12T14:19:16;77685.06;;;25.86
73673;BMP280;61972;19.480;-99.240;2023-03-12T14:21:46;77694.44;;;25.84
73673;BMP280;61972;19.480;-99.240;2023-03-12T14:26:55;77695.19;;;25.80
73673;BMP280;61972;19.480;-99.240;2023-03-12T14:29:38;77699.31;;;25.79
73673;BMP280;61972;19.480;-99.240;2023-03-12T14:32:16;77704.56;;;25.79
73673;BMP280;61972;19.480;-99.240;2023-03-12T14:34:52;77706.09;;;25.78
73673;BMP280;61972;19.480;-99.240;2023-03-12T14:37:24;77704.97;;;25.77
73673;BMP280;61972;19.480;-99.240;2023-03-12T14:42:44;77703.84;;;25.76
73673;BMP280;61972;19.480;-99.240;2023-03-12T14:45:21;77707.41;;;25.75
73673;BMP280;61972;19.480;-99.240;2023-03-12T14:47:56;77712.09;;;25.74
73673;BMP280;61972;19.480;-99.240;2023-03-12T14:50:29;77705.75;;;25.73
73673;BMP280;61972;19.480;-99.240;2023-03-12T14:53:11;77717.16;;;25.72
73673;BMP280;61972;19.480;-99.240;2023-03-12T14:55:37;77713.03;;;25.73
73673;BMP280;61972;19.480;-99.240;2023-03-12T14:58:05;77715.66;;;25.73
73673;BMP280;61972;19.480;-99.240;2023-03-12T15:00:32;77714.00;;;25.71
73673;BMP280;61972;19.480;-99.240;2023-03-12T15:03:03;77727.06;;;25.71
73673;BMP280;61972;19.480;-99.240;2023-03-12T15:05:30;77726.53;;;25.71
73673;BMP280;61972;19.480;-99.240;2023-03-12T15:08:01;77725.94;;;25.70
73673;BMP280;61972;19.480;-99.240;2023-03-12T15:10:29;77733.41;;;25.72
73673;BMP280;61972;19.480;-99.240;2023-03-12T15:12:58;77729.13;;;25.71
73673;BMP280;61972;19.480;-99.240;2023-03-12T15:15:32;77725.94;;;25.70
73673;BMP280;61972;19.480;-99.240;2023-03-12T15:18:10;77730.63;;;25.70
73673;BMP280;61972;19.480;-99.240;2023-03-12T15:20:37;77730.06;;;25.69
73673;BMP280;61972;19.480;-99.240;2023-03-12T15:23:05;77731.19;;;25.70
73673;BMP280;61972;19.480;-99.240;2023-03-12T15:25:33;77733.66;;;25.68
73673;BMP280;61972;19.480;-99.240;2023-03-12T15:28:04;77733.66;;;25.68
73673;BMP280;61972;19.480;-99.240;2023-03-12T15:30:31;77734.75;;;25.69
73673;BMP280;61972;19.480;-99.240;2023-03-12T15:33:11;77734.75;;;25.69
73673;BMP280;61972;19.480;-99.240;2023-03-12T15:35:41;77735.31;;;25.69
73673;BMP280;61972;19.480;-99.240;2023-03-12T15:38:15;77740.53;;;25.69
73673;BMP280;61972;19.480;-99.240;2023-03-12T15:40:48;77741.09;;;25.70
73673;BMP280;61972;19.480;-99.240;2023-03-12T15:43:18;77743.16;;;25.69
73673;BMP280;61972;19.480;-99.240;2023-03-12T15:45:45;77735.31;;;25.69
73673;BMP280;61972;19.480;-99.240;2023-03-12T15:48:34;77742.78;;;25.71
73673;BMP280;61972;19.480;-99.240;2023-03-12T15:51:01;77743.31;;;25.72
73673;BMP280;61972;19.480;-99.240;2023-03-12T15:53:33;77740.16;;;25.71
73673;BMP280;61972;19.480;-99.240;2023-03-12T15:58:37;77734.53;;;25.73
73673;BMP280;61972;19.480;-99.240;2023-03-12T16:01:17;77731.91;;;25.73
73673;BMP280;61972;19.480;-99.240;2023-03-12T16:03:48;77727.41;;;25.76